Time;durP1;ratioP1;P1;durP2;ratioP2;P2;SDS_P1;SDS_P2;PMS_P1;PMS_P2;Temp;Humidity;BMP_temperature;BMP_pressure;BME280_temperature;BME280_humidity;BME280_pressure;Samples;Min_cycle;Max_cycle;Signal;HPM_P1;HPM_P2
2021/07/28 00:00:20;;;;;;;18.23;16.43;;;;;;;20.83;84.85;98669.18;124980;1093;64271;-78
2021/07/28 00:03:07;;;;;;;18.43;16.53;;;;;;;20.81;84.90;98663.92;125009;1093;64612;-78
2021/07/28 00:05:35;;;;;;;20.90;16.27;;;;;;;20.79;85.12;98659.70;124983;1093;64284;-78
2021/07/28 00:08:03;;;;;;;19.40;17.40;;;;;;;20.78;85.09;98671.57;125014;1093;64322;-78
2021/07/28 00:10:30;;;;;;;16.73;15.03;;;;;;;20.76;85.16;98660.06;125044;1093;64294;-78
2021/07/28 00:12:57;;;;;;;20.37;16.90;;;;;;;20.75;85.36;98655.68;124906;1092;64319;-78
2021/07/28 00:15:25;;;;;;;19.73;16.80;;;;;;;20.72;85.42;98656.88;125049;1091;64383;-78
2021/07/28 00:17:55;;;;;;;17.77;15.90;;;;;;;20.70;85.19;98658.07;125061;1093;64254;-78
2021/07/28 00:25:38;;;;;;;19.60;16.80;;;;;;;20.67;85.49;98658.39;124885;1092;64300;-78
2021/07/28 00:28:05;;;;;;;17.90;16.00;;;;;;;20.65;85.24;98660.45;125002;1092;64248;-78
2021/07/28 00:30:33;;;;;;;20.90;16.75;;;;;;;20.63;85.25;98657.08;125000;1093;64114;-78
2021/07/28 00:33:01;;;;;;;18.80;16.80;;;;;;;20.56;85.50;98656.91;125025;1093;64284;-78
2021/07/28 00:35:28;;;;;;;19.57;17.37;;;;;;;20.53;85.44;98668.91;125017;1093;64290;-78
2021/07/28 00:38:01;;;;;;;17.20;15.60;;;;;;;20.46;85.45;98662.52;124900;1092;64297;-78
2021/07/28 00:40:28;;;;;;;18.13;16.23;;;;;;;20.40;85.61;98663.20;124905;1092;64277;-78
2021/07/28 00:43:12;;;;;;;18.67;16.77;;;;;;;20.37;85.62;98658.97;124990;1093;64293;-78
2021/07/28 00:45:40;;;;;;;20.13;15.90;;;;;;;20.36;85.78;98651.88;125039;1093;64303;-78
2021/07/28 00:48:09;;;;;;;17.93;15.97;;;;;;;20.33;86.09;98649.53;125061;1092;64271;-78
2021/07/28 00:50:39;;;;;;;19.50;16.73;;;;;;;20.32;86.35;98658.64;125052;1093;64567;-78
2021/07/28 00:53:14;;;;;;;18.70;16.07;;;;;;;20.31;86.18;98659.67;125042;1093;64245;-78
2021/07/28 00:55:41;;;;;;;17.03;15.23;;;;;;;20.28;86.17;98657.32;124996;1093;64297;-78
2021/07/28 00:58:08;;;;;;;17.50;15.77;;;;;;;20.28;86.47;98648.36;125064;1093;64271;-78
2021/07/28 01:00:36;;;;;;;18.83;16.47;;;;;;;20.30;86.68;98651.72;125106;1092;64278;-78
2021/07/28 01:03:03;;;;;;;17.43;15.67;;;;;;;20.32;86.47;98644.27;125123;1092;64325;-78
2021/07/28 01:05:30;;;;;;;17.50;15.70;;;;;;;20.32;86.46;98634.28;124985;1093;64278;-78
2021/07/28 01:07:58;;;;;;;18.93;16.97;;;;;;;20.31;86.80;98629.91;125037;1093;64692;-78
2021/07/28 01:10:25;;;;;;;20.93;18.70;;;;;;;20.27;86.85;98625.84;125020;1093;64424;-78
2021/07/28 01:12:54;;;;;;;21.83;17.27;;;;;;;20.24;86.50;98634.31;125025;1093;64322;-78
2021/07/28 01:18:07;;;;;;;18.87;16.90;;;;;;;20.15;87.03;98638.91;125052;1093;64309;-78
2021/07/28 01:20:46;;;;;;;18.10;16.17;;;;;;;20.11;86.93;98642.13;125072;1092;64251;-78
2021/07/28 01:23:13;;;;;;;18.05;16.10;;;;;;;20.07;86.84;98641.64;125068;1092;64354;-78
2021/07/28 01:25:43;;;;;;;17.07;15.37;;;;;;;20.05;86.77;98640.12;125035;1093;64284;-79
2021/07/28 01:28:11;;;;;;;16.65;15.05;;;;;;;20.03;86.92;98642.98;125044;1093;64389;-78
2021/07/28 01:30:39;;;;;;;17.37;15.57;;;;;;;20.03;87.15;98640.28;125043;1093;64156;-79
2021/07/28 01:33:07;;;;;;;17.30;15.57;;;;;;;20.03;87.12;98640.28;125043;1091;64216;-79
2021/07/28 01:35:39;;;;;;;17.77;15.20;;;;;;;20.06;87.00;98636.38;125003;1093;64423;-78
2021/07/28 01:38:06;;;;;;;17.57;15.87;;;;;;;20.02;87.07;98638.60;125010;1093;64287;-78
2021/07/28 01:40:39;;;;;;;19.13;15.73;;;;;;;19.97;87.05;98629.31;125003;1093;64297;-78
2021/07/28 01:43:15;;;;;;;17.43;15.53;;;;;;;19.94;86.98;98630.50;125109;1093;64223;-78
2021/07/28 01:45:42;;;;;;;19.43;15.67;;;;;;;19.95;87.24;98626.77;125060;1093;64296;-78
2021/07/28 01:48:10;;;;;;;18.00;15.97;;;;;;;20.00;87.26;98620.85;125095;1092;64219;-78
2021/07/28 01:50:38;;;;;;;17.77;15.97;;;;;;;20.00;87.67;98627.09;125011;1093;64287;-79
2021/07/28 01:53:05;;;;;;;18.60;15.60;;;;;;;19.99;87.59;98625.42;125049;1093;64283;-79
2021/07/28 01:55:33;;;;;;;19.50;15.57;;;;;;;19.98;87.37;98625.58;124999;1092;64271;-78
2021/07/28 01:58:01;;;;;;;18.17;15.97;;;;;;;19.94;87.49;98625.09;124763;1093;64310;-78
2021/07/28 02:01:09;;;;;;;16.70;15.00;;;;;;;19.90;87.22;98624.57;124815;1093;64874;-78
2021/07/28 02:03:36;;;;;;;16.67;15.07;;;;;;;19.89;87.65;98627.47;124775;1093;64275;-78
2021/07/28 02:06:06;;;;;;;17.53;15.07;;;;;;;19.87;87.36;98624.92;124794;1093;64290;-78
2021/07/28 02:08:33;;;;;;;17.53;15.70;;;;;;;19.85;87.54;98623.40;124830;1093;64291;-78
2021/07/28 02:11:01;;;;;;;17.30;15.30;;;;;;;19.85;87.34;98628.81;124811;1092;64302;-78
2021/07/28 02:13:28;;;;;;;16.90;15.17;;;;;;;19.87;87.56;98629.48;124773;1093;64434;-78
2021/07/28 02:15:55;;;;;;;19.37;16.27;;;;;;;19.82;87.36;98623.75;124775;1093;64409;-78
2021/07/28 02:18:23;;;;;;;17.67;15.77;;;;;;;19.77;87.86;98624.25;124810;1093;64268;-78
2021/07/28 02:20:50;;;;;;;17.90;15.50;;;;;;;19.73;88.00;98623.76;124839;1093;64268;-78
2021/07/28 02:23:17;;;;;;;16.90;15.30;;;;;;;19.73;87.94;98621.05;124771;1092;64245;-78
2021/07/28 02:25:45;;;;;;;17.40;15.67;;;;;;;19.72;88.37;98624.78;124831;1093;64491;-78
2021/07/28 02:28:12;;;;;;;17.15;15.55;;;;;;;19.67;88.31;98619.04;124796;1093;64325;-78
2021/07/28 02:30:39;;;;;;;17.95;16.05;;;;;;;19.68;88.44;98633.39;124793;1093;64239;-78
2021/07/28 02:33:06;;;;;;;17.97;16.00;;;;;;;19.69;88.57;98637.78;124821;1093;64194;-78
2021/07/28 02:35:33;;;;;;;18.37;16.40;;;;;;;19.70;88.51;98636.78;124797;1093;64194;-78
2021/07/28 02:38:00;;;;;;;22.00;18.33;;;;;;;19.77;89.02;98637.77;124755;1093;64345;-78
2021/07/28 02:40:28;;;;;;;17.33;15.57;;;;;;;19.76;88.53;98629.84;124691;1093;64351;-78
2021/07/28 02:42:56;;;;;;;17.60;15.80;;;;;;;19.73;88.75;98634.58;124682;1093;64271;-78
2021/07/28 02:45:23;;;;;;;18.10;15.87;;;;;;;19.73;88.25;98633.73;124819;1093;64216;-78
2021/07/28 02:47:50;;;;;;;18.27;16.13;;;;;;;19.73;88.35;98629.16;124809;1092;64287;-78
2021/07/28 02:50:17;;;;;;;18.40;15.97;;;;;;;19.76;88.39;98632.55;124816;1093;64380;-78
2021/07/28 02:52:44;;;;;;;17.43;15.40;;;;;;;19.76;88.80;98625.28;124792;1093;64289;-78
2021/07/28 02:55:12;;;;;;;17.83;16.03;;;;;;;19.78;88.77;98635.94;124654;1093;64332;-79
2021/07/28 02:57:39;;;;;;;19.90;17.53;;;;;;;19.80;88.58;98628.47;124663;1093;64217;-79
2021/07/28 03:00:08;;;;;;;17.77;15.87;;;;;;;19.81;88.78;98622.07;124829;1093;64282;-78
2021/07/28 03:02:36;;;;;;;19.15;17.38;;;;;;;19.79;88.69;98626.80;124888;1093;64341;-78
2021/07/28 03:05:04;;;;;;;17.80;15.93;;;;;;;19.76;88.33;98633.39;124892;1093;64267;-78
2021/07/28 03:07:33;;;;;;;18.47;16.67;;;;;;;19.73;88.53;98629.16;125104;1093;64251;-78
2021/07/28 03:10:02;;;;;;;19.13;16.53;;;;;;;19.73;88.86;98621.05;125194;1093;64370;-78
2021/07/28 03:12:29;;;;;;;17.60;15.83;;;;;;;19.72;88.88;98623.91;125175;1093;64268;-78
2021/07/28 03:14:56;;;;;;;18.73;16.37;;;;;;;19.70;88.96;98620.56;125045;1093;64231;-78
2021/07/28 03:17:24;;;;;;;20.80;17.50;;;;;;;19.70;89.15;98612.45;124774;1092;64341;-78
2021/07/28 03:19:51;;;;;;;18.77;16.93;;;;;;;19.73;89.27;98604.83;125081;1093;64265;-78
2021/07/28 03:22:18;;;;;;;19.10;17.17;;;;;;;19.76;89.51;98608.22;124791;1093;64197;-79
2021/07/28 03:24:45;;;;;;;19.40;17.23;;;;;;;19.77;89.25;98613.44;124659;1093;64332;-79
2021/07/28 03:27:12;;;;;;;19.00;17.00;;;;;;;19.81;89.35;98608.55;124618;1093;64322;-79
2021/07/28 03:29:40;;;;;;;18.73;16.83;;;;;;;19.86;89.49;98622.41;124798;1093;64798;-79
2021/07/28 03:32:08;;;;;;;17.50;15.70;;;;;;;19.85;89.12;98620.70;124791;1093;64275;-79
2021/07/28 03:34:36;;;;;;;17.83;15.97;;;;;;;19.89;89.49;98625.59;124791;1093;64684;-79
2021/07/28 03:37:04;;;;;;;17.20;15.53;;;;;;;19.93;89.14;98618.84;124756;1093;64310;-79
2021/07/28 03:39:31;;;;;;;19.17;17.27;;;;;;;20.13;89.07;98613.05;124812;1093;64227;-79
2021/07/28 03:41:58;;;;;;;16.60;14.93;;;;;;;20.34;88.39;98610.61;124824;1093;64302;-79
2021/07/28 03:44:26;;;;;;;17.33;15.60;;;;;;;20.73;88.20;98619.80;124612;1093;64297;-79
2021/07/28 03:46:53;;;;;;;18.40;15.23;;;;;;;21.10;87.29;98608.23;124823;1093;64194;-79
2021/07/28 03:49:20;;;;;;;18.10;15.20;;;;;;;21.48;86.39;98602.89;124813;1093;64300;-79
2021/07/28 03:51:47;;;;;;;20.10;15.80;;;;;;;21.57;85.66;98599.10;124795;1093;64277;-79
2021/07/28 03:54:14;;;;;;;17.15;15.35;;;;;;;21.33;86.10;98602.83;124806;1093;64284;-79
2021/07/28 03:56:41;;;;;;;16.13;14.57;;;;;;;21.19;86.11;98601.72;124783;1093;64287;-79
2021/07/28 03:59:09;;;;;;;16.90;15.13;;;;;;;21.07;85.93;98595.05;124829;1092;64226;-79
2021/07/28 04:01:36;;;;;;;20.47;15.60;;;;;;;21.04;86.44;98592.70;124791;1093;64849;-79
2021/07/28 04:04:03;;;;;;;16.40;14.67;;;;;;;21.02;86.29;98594.75;124637;1093;64294;-79
2021/07/28 04:06:30;;;;;;;17.13;15.33;;;;;;;21.14;86.22;98590.58;124776;1093;64190;-79
2021/07/28 04:08:57;;;;;;;17.27;15.40;;;;;;;21.86;85.11;98592.90;124640;1093;64290;-79
2021/07/28 04:11:24;;;;;;;15.90;14.43;;;;;;;22.52;83.68;98587.60;124820;1093;64287;-79
2021/07/28 04:13:52;;;;;;;15.03;13.63;;;;;;;23.08;82.57;98586.19;124644;1093;64335;-79
2021/07/28 04:16:19;;;;;;;16.27;14.70;;;;;;;23.53;81.29;98584.95;124779;1093;64271;-79
2021/07/28 04:18:46;;;;;;;16.13;14.27;;;;;;;23.93;80.64;98581.73;124694;1094;64274;-79
2021/07/28 04:21:13;;;;;;;16.20;14.17;;;;;;;24.32;79.48;98575.70;124789;1093;64213;-79
2021/07/28 04:23:41;;;;;;;15.43;13.80;;;;;;;24.67;78.25;98573.81;124653;1093;64358;-79
2021/07/28 04:26:08;;;;;;;14.57;13.17;;;;;;;24.92;76.59;98573.27;124801;1093;64297;-79
2021/07/28 04:28:35;;;;;;;15.97;14.57;;;;;;;25.21;75.86;98569.38;124800;1093;64367;-79
2021/07/28 04:31:02;;;;;;;15.70;14.20;;;;;;;25.57;75.33;98568.99;124804;1092;64372;-79
2021/07/28 04:33:29;;;;;;;15.07;13.33;;;;;;;25.79;74.05;98574.23;124784;1093;64313;-79
2021/07/28 04:35:56;;;;;;;15.10;13.70;;;;;;;26.09;73.57;98568.34;124786;1093;64214;-79
2021/07/28 04:38:23;;;;;;;15.80;14.33;;;;;;;26.43;72.31;98561.73;124751;1093;64271;-79
2021/07/28 04:40:51;;;;;;;13.93;12.53;;;;;;;26.77;71.72;98560.56;124761;1093;64284;-79
2021/07/28 04:43:18;;;;;;;13.47;12.17;;;;;;;26.95;70.54;98564.48;124667;1093;64235;-79
2021/07/28 04:45:46;;;;;;;12.40;11.30;;;;;;;27.33;69.87;98567.20;124794;1093;64208;-79
2021/07/28 04:48:13;;;;;;;12.70;11.40;;;;;;;27.57;69.66;98563.67;124801;1093;64268;-79
2021/07/28 04:50:40;;;;;;;12.37;11.17;;;;;;;27.91;68.07;98552.44;124795;1093;64284;-79
2021/07/28 04:53:08;;;;;;;14.50;12.03;;;;;;;28.12;66.71;98551.17;124651;1093;64267;-79
2021/07/28 04:55:35;;;;;;;14.17;12.73;;;;;;;28.32;66.71;98557.28;124803;1093;64316;-79
2021/07/28 04:58:02;;;;;;;14.33;11.53;;;;;;;28.59;65.65;98556.99;124675;1093;64335;-79
2021/07/28 05:00:29;;;;;;;12.83;11.57;;;;;;;28.78;65.31;98552.31;124795;1093;64213;-79
2021/07/28 05:02:56;;;;;;;13.87;12.43;;;;;;;28.93;64.36;98554.66;124793;1092;64287;-79
2021/07/28 05:05:25;;;;;;;13.20;12.07;;;;;;;29.08;63.62;98544.14;124797;1093;64341;-80
2021/07/28 05:07:52;;;;;;;13.27;12.07;;;;;;;29.19;63.20;98546.07;124815;1093;64325;-79
2021/07/28 05:10:20;;;;;;;12.35;11.25;;;;;;;29.23;62.67;98550.03;124859;1093;64300;-79
2021/07/28 05:12:47;;;;;;;12.80;11.70;;;;;;;29.33;62.36;98552.19;124829;1093;64271;-79
2021/07/28 05:15:14;;;;;;;12.87;11.70;;;;;;;29.45;60.40;98546.73;124799;1093;64271;-80
2021/07/28 05:17:42;;;;;;;12.70;11.67;;;;;;;29.46;60.87;98548.40;124802;1093;64314;-80
2021/07/28 05:20:10;;;;;;;12.07;10.97;;;;;;;29.49;60.91;98548.78;124852;1093;64284;-80
2021/07/28 05:22:37;;;;;;;11.83;10.83;;;;;;;29.61;60.72;98556.20;124896;1093;64271;-79
2021/07/28 05:25:05;;;;;;;12.30;11.30;;;;;;;29.70;59.56;98555.66;124837;1093;64274;-79
2021/07/28 05:27:33;;;;;;;13.85;12.60;;;;;;;29.66;58.78;98559.94;124878;1093;64276;-77
2021/07/28 05:30:00;;;;;;;12.87;11.57;;;;;;;29.62;58.36;98560.60;124801;1093;64344;-79
2021/07/28 05:32:27;;;;;;;13.67;11.73;;;;;;;29.46;57.85;98554.72;124641;1093;64363;-79
2021/07/28 05:34:55;;;;;;;13.63;12.40;;;;;;;29.52;58.32;98559.29;124828;1092;64284;-80
2021/07/28 05:37:23;;;;;;;12.67;11.57;;;;;;;29.63;57.92;98552.14;124800;1093;64271;-80
2021/07/28 05:39:51;;;;;;;12.58;11.28;;;;;;;29.56;58.01;98550.58;124788;1093;64271;-80
2021/07/28 05:42:18;;;;;;;12.33;11.33;;;;;;;29.48;58.56;98552.58;124795;1092;64326;-80
2021/07/28 05:44:45;;;;;;;12.10;11.20;;;;;;;29.40;59.05;98550.19;124785;1093;64293;-80
2021/07/28 05:47:12;;;;;;;12.07;11.00;;;;;;;29.40;58.00;98560.33;124668;1093;64309;-80
2021/07/28 05:49:40;;;;;;;11.90;10.60;;;;;;;29.32;58.11;98550.53;124837;1092;64271;-80
2021/07/28 05:52:07;;;;;;;12.40;10.20;;;;;;;29.30;58.00;98555.41;124816;1093;64297;-80
2021/07/28 05:54:41;;;;;;;11.87;10.67;;;;;;;29.56;57.98;98553.32;124773;1093;64286;-80
2021/07/28 05:57:08;;;;;;;12.77;9.97;;;;;;;29.40;58.06;98549.35;124694;1093;64373;-77
2021/07/28 05:59:35;;;;;;;12.20;10.07;;;;;;;29.64;57.52;98553.83;124813;1093;64268;-79
2021/07/28 06:02:03;;;;;;;12.27;11.07;;;;;;;29.88;57.32;98545.61;124851;1093;64315;-79
2021/07/28 06:04:30;;;;;;;11.53;10.37;;;;;;;29.79;56.54;98552.55;124808;1093;64269;-78
2021/07/28 06:06:58;;;;;;;15.30;11.33;;;;;;;29.98;57.41;98548.59;124673;1093;64309;-78
2021/07/28 06:09:25;;;;;;;11.50;9.97;;;;;;;30.22;56.46;98545.83;124786;1093;64278;-78
2021/07/28 06:11:52;;;;;;;10.87;9.77;;;;;;;29.96;57.40;98556.23;124782;1093;64271;-79
2021/07/28 06:14:20;;;;;;;10.90;9.93;;;;;;;30.23;56.51;98544.74;124821;1093;64296;-79
2021/07/28 06:16:47;;;;;;;10.00;9.03;;;;;;;30.48;56.55;98548.08;124811;1093;64284;-78
2021/07/28 06:19:14;;;;;;;10.47;9.37;;;;;;;30.70;56.09;98548.28;124808;1093;64353;-78
2021/07/28 06:21:41;;;;;;;11.20;8.90;;;;;;;30.86;55.91;98546.70;124772;1093;64289;-78
2021/07/28 06:24:09;;;;;;;11.70;9.67;;;;;;;31.00;55.46;98541.73;124811;1093;64294;-79
2021/07/28 06:26:36;;;;;;;12.83;10.23;;;;;;;31.11;55.71;98548.26;124803;1093;64274;-79
2021/07/28 06:29:03;;;;;;;12.67;9.33;;;;;;;31.18;55.27;98540.69;124688;1093;64283;-79
2021/07/28 06:31:30;;;;;;;9.67;8.67;;;;;;;31.26;55.08;98543.03;124773;1093;64341;-78
2021/07/28 06:33:58;;;;;;;14.40;10.17;;;;;;;31.33;55.09;98542.86;124788;1091;64290;-78
2021/07/28 06:36:26;;;;;;;11.67;10.17;;;;;;;31.40;54.64;98547.16;124802;1093;64284;-78
2021/07/28 06:38:53;;;;;;;12.87;9.73;;;;;;;31.43;54.16;98545.83;124643;1093;64284;-80
2021/07/28 06:41:20;;;;;;;11.63;9.20;;;;;;;31.43;54.26;98556.84;124762;1093;64268;-78
2021/07/28 06:43:47;;;;;;;11.40;8.67;;;;;;;31.48;54.37;98557.77;124765;1093;64383;-78
2021/07/28 06:46:14;;;;;;;9.27;8.57;;;;;;;31.56;53.94;98561.20;124807;1093;64367;-78
2021/07/28 06:48:41;;;;;;;11.23;10.27;;;;;;;31.60;53.60;98554.95;124806;1093;64323;-78
2021/07/28 06:51:09;;;;;;;9.57;8.57;;;;;;;31.71;53.26;98556.78;124795;1093;64294;-78
2021/07/28 06:53:36;;;;;;;8.90;8.10;;;;;;;31.78;53.08;98564.03;124779;1093;64271;-78
2021/07/28 06:56:03;;;;;;;9.50;7.55;;;;;;;31.79;52.23;98552.77;124790;1093;64283;-78
2021/07/28 06:58:30;;;;;;;9.03;8.20;;;;;;;31.74;52.79;98549.93;124808;1093;64364;-78
2021/07/28 07:00:59;;;;;;;9.13;7.50;;;;;;;31.83;52.42;98553.09;124819;1093;64298;-78
2021/07/28 07:03:27;;;;;;;11.47;8.83;;;;;;;31.91;52.07;98548.01;124787;1092;64367;-78
2021/07/28 07:05:54;;;;;;;7.67;6.97;;;;;;;32.04;52.49;98540.48;124829;1093;64290;-78
2021/07/28 07:08:21;;;;;;;9.00;8.17;;;;;;;32.04;52.11;98540.48;124782;1093;64257;-78
2021/07/28 07:10:48;;;;;;;8.73;7.80;;;;;;;32.03;52.60;98538.83;124807;1093;64460;-79
2021/07/28 07:13:15;;;;;;;10.00;9.00;;;;;;;32.09;51.62;98527.60;124816;1093;64309;-79
2021/07/28 07:15:42;;;;;;;15.20;8.53;;;;;;;32.00;51.24;98526.39;124674;1093;64271;-79
2021/07/28 07:18:09;;;;;;;8.87;8.07;;;;;;;31.89;51.75;98521.78;124753;1093;64245;-79
2021/07/28 07:20:37;;;;;;;8.43;6.60;;;;;;;31.80;50.94;98521.36;124967;1093;64362;-76
2021/07/28 07:23:27;;;;;;;9.20;8.27;;;;;;;31.49;51.75;98528.30;125163;1093;64287;-89
2021/07/28 07:25:58;;;;;;;10.33;8.77;;;;;;;31.25;52.88;98522.07;124718;1093;64358;-79
2021/07/28 07:28:26;;;;;;;8.93;7.27;;;;;;;31.00;52.72;98523.30;124793;1093;64363;-79
2021/07/28 07:31:14;;;;;;;9.35;8.25;;;;;;;30.80;53.15;98523.70;124919;1093;64194;-91
2021/07/28 07:33:42;;;;;;;9.20;7.70;;;;;;;30.63;53.06;98517.33;124852;1093;64287;-79
2021/07/28 07:36:13;;;;;;;11.40;7.80;;;;;;;30.44;52.83;98521.30;124739;1093;64360;-79
2021/07/28 07:39:03;;;;;;;9.37;7.80;;;;;;;30.19;53.26;98525.98;124974;1093;64287;-90
2021/07/28 07:41:31;;;;;;;11.30;7.00;;;;;;;30.05;53.75;98516.34;124840;1093;64225;-79
2021/07/28 07:43:59;;;;;;;9.67;7.90;;;;;;;30.05;54.12;98513.59;124877;1093;64220;-79
2021/07/28 07:46:28;;;;;;;7.80;7.00;;;;;;;30.06;54.01;98506.18;124807;1092;64188;-80
2021/07/28 07:48:56;;;;;;;8.20;7.23;;;;;;;30.00;53.72;98501.66;124718;1093;64251;-79
2021/07/28 07:51:24;;;;;;;10.27;7.73;;;;;;;29.86;53.98;98509.29;124686;1093;64267;-79
2021/07/28 07:53:52;;;;;;;9.37;7.47;;;;;;;29.86;54.47;98509.29;124890;1092;64268;-85
2021/07/28 07:56:19;;;;;;;8.83;7.97;;;;;;;29.84;54.31;98506.80;124787;1093;64332;-85
2021/07/28 07:58:46;;;;;;;8.90;7.93;;;;;;;29.84;53.75;98498.56;124940;1092;64322;-78
2021/07/28 08:01:13;;;;;;;15.47;8.53;;;;;;;29.79;53.99;98498.44;124793;1093;64268;-78
2021/07/28 08:03:42;;;;;;;8.77;7.50;;;;;;;29.81;54.33;98496.30;124777;1093;64612;-78
2021/07/28 08:06:10;;;;;;;10.27;7.60;;;;;;;29.75;54.24;98497.23;124834;1093;64274;-78
2021/07/28 08:08:39;;;;;;;9.55;7.05;;;;;;;29.71;54.59;98485.90;124844;1093;64367;-78
2021/07/28 08:11:13;;;;;;;7.03;6.33;;;;;;;29.81;55.49;98485.31;124716;1094;64232;-78
2021/07/28 08:13:41;;;;;;;9.80;7.50;;;;;;;30.02;55.64;98497.59;124670;1092;64271;-78
2021/07/28 08:16:16;;;;;;;6.97;5.67;;;;;;;30.09;54.34;98491.95;124672;1093;64191;-78
2021/07/28 08:18:43;;;;;;;9.93;5.90;;;;;;;30.23;54.09;98487.02;124730;1093;64296;-78
2021/07/28 08:21:11;;;;;;;8.33;6.00;;;;;;;30.29;53.89;98492.42;124696;1093;64276;-78
2021/07/28 08:23:40;;;;;;;8.20;6.27;;;;;;;30.36;53.81;98493.13;124732;1093;64289;-78
2021/07/28 08:26:08;;;;;;;7.97;6.20;;;;;;;30.36;53.09;98500.52;124793;1093;64278;-78
2021/07/28 08:28:36;;;;;;;14.37;6.27;;;;;;;30.32;53.10;98494.69;124673;1093;64262;-78
2021/07/28 08:31:03;;;;;;;7.03;6.00;;;;;;;30.45;53.48;98498.25;124711;1093;64290;-78
2021/07/28 08:33:30;;;;;;;10.50;6.03;;;;;;;30.52;53.00;98501.70;124659;1093;64226;-78
2021/07/28 08:35:59;;;;;;;9.60;6.00;;;;;;;30.49;52.90;98499.41;124680;1093;64509;-78
2021/07/28 08:38:26;;;;;;;9.45;6.50;;;;;;;30.44;53.30;98493.81;124783;1092;64291;-78
2021/07/28 08:41:01;;;;;;;7.60;6.80;;;;;;;30.49;53.88;98497.52;124718;1092;64284;-78
2021/07/28 08:43:32;;;;;;;9.90;6.30;;;;;;;30.54;52.22;98496.77;124697;1093;64294;-78
2021/07/28 08:46:03;;;;;;;9.60;6.77;;;;;;;30.58;52.01;98492.47;124753;1093;64301;-78
2021/07/28 08:48:31;;;;;;;10.00;7.27;;;;;;;30.54;51.66;98494.02;124730;1093;64297;-78
2021/07/28 08:50:59;;;;;;;11.80;7.60;;;;;;;30.46;52.57;98497.16;124724;1093;64439;-78
2021/07/28 08:53:28;;;;;;;10.93;7.67;;;;;;;30.55;53.15;98498.45;124699;1093;64290;-77
2021/07/28 08:55:57;;;;;;;9.70;6.83;;;;;;;30.70;53.56;98497.91;124674;1093;64268;-77
2021/07/28 08:58:26;;;;;;;9.13;7.20;;;;;;;30.88;53.73;98491.41;124633;1093;64345;-77
2021/07/28 09:00:55;;;;;;;10.00;6.83;;;;;;;31.05;53.31;98504.13;124685;1093;64293;-77
2021/07/28 09:03:23;;;;;;;11.65;6.63;;;;;;;31.18;53.28;98496.64;124684;1093;64245;-78
2021/07/28 09:05:52;;;;;;;10.45;7.70;;;;;;;31.31;53.09;98496.31;124703;1093;64183;-77
2021/07/28 09:08:34;;;;;;;8.87;6.87;;;;;;;31.44;51.77;98489.68;124696;1093;64244;-77
2021/07/28 09:11:03;;;;;;;10.67;7.33;;;;;;;31.41;52.03;98487.40;124681;1093;64271;-77
2021/07/28 09:13:37;;;;;;;8.28;6.78;;;;;;;31.47;52.08;98490.00;124683;1093;64306;-77
2021/07/28 09:16:08;;;;;;;10.10;6.37;;;;;;;31.47;51.22;98494.69;124700;1093;64287;-78
2021/07/28 09:18:36;;;;;;;9.67;6.63;;;;;;;31.44;51.25;98492.44;124712;1093;64314;-78
2021/07/28 09:21:24;;;;;;;12.03;7.10;;;;;;;31.37;50.40;98492.59;124689;1093;64292;-78
2021/07/28 09:24:15;;;;;;;7.47;6.40;;;;;;;31.35;51.13;98489.21;124727;1093;64300;-78
2021/07/28 09:26:47;;;;;;;11.50;8.00;;;;;;;31.38;50.46;98485.98;124666;1093;64316;-78
2021/07/28 09:29:27;;;;;;;11.97;6.67;;;;;;;31.48;50.26;98483.39;124683;1093;64293;-78
2021/07/28 09:31:55;;;;;;;11.93;6.93;;;;;;;31.53;49.72;98485.41;124684;1093;64222;-78
2021/07/28 09:34:23;;;;;;;10.83;6.60;;;;;;;31.50;49.28;98480.41;124676;1093;64373;-78
2021/07/28 09:36:55;;;;;;;14.57;6.40;;;;;;;31.58;49.93;98477.22;124714;1093;64251;-78
2021/07/28 09:39:36;;;;;;;10.17;6.97;;;;;;;31.71;49.70;98481.55;124663;1093;64328;-78
2021/07/28 09:42:10;;;;;;;10.47;6.37;;;;;;;31.81;49.42;98472.58;124734;1093;64241;-78
2021/07/28 09:44:40;;;;;;;10.03;6.33;;;;;;;31.90;48.66;98471.08;124701;1093;64219;-78
2021/07/28 09:47:09;;;;;;;12.57;6.07;;;;;;;32.07;49.82;98468.30;124735;1093;64267;-78
2021/07/28 09:49:39;;;;;;;10.20;6.17;;;;;;;32.23;49.24;98469.33;124708;1093;64319;-78
2021/07/28 09:52:33;;;;;;;12.40;6.67;;;;;;;32.30;48.72;98476.32;124729;1092;64276;-78
2021/07/28 09:55:29;;;;;;;10.83;6.50;;;;;;;32.14;48.96;98475.29;124678;1093;64300;-78
2021/07/28 09:57:58;;;;;;;9.60;6.07;;;;;;;32.08;48.93;98476.32;124686;1093;64290;-78
2021/07/28 10:00:29;;;;;;;10.80;6.43;;;;;;;31.96;48.87;98480.28;124709;1093;64268;-78
2021/07/28 10:03:04;;;;;;;11.40;6.40;;;;;;;31.92;48.81;98479.94;124755;1093;64242;-78
2021/07/28 10:05:33;;;;;;;10.13;5.83;;;;;;;31.96;48.35;98466.50;124721;1093;64300;-78
2021/07/28 10:08:07;;;;;;;10.25;5.83;;;;;;;32.12;48.10;98471.98;124647;1093;64271;-78
2021/07/28 10:10:37;;;;;;;10.23;5.93;;;;;;;32.33;48.43;98469.45;124742;1093;64271;-78
2021/07/28 10:13:05;;;;;;;10.03;6.40;;;;;;;32.52;48.04;98470.02;124885;1093;64268;-78
2021/07/28 10:15:33;;;;;;;8.10;5.60;;;;;;;32.60;47.36;98471.45;124841;1092;64269;-78
2021/07/28 10:18:01;;;;;;;7.03;6.13;;;;;;;32.57;45.73;98468.14;124757;1093;64278;-78
2021/07/28 10:20:29;;;;;;;7.87;5.73;;;;;;;32.45;46.45;98467.41;124856;1093;64303;-78
2021/07/28 10:22:57;;;;;;;9.63;5.93;;;;;;;32.56;46.51;98465.63;124751;1093;64404;-78
2021/07/28 10:25:25;;;;;;;8.40;5.53;;;;;;;32.65;45.89;98460.47;124831;1092;64737;-78
2021/07/28 10:27:53;;;;;;;8.73;5.93;;;;;;;32.36;45.77;98463.42;124789;1093;64417;-77
2021/07/28 10:30:22;;;;;;;13.23;5.43;;;;;;;32.22;46.73;98460.23;124870;1093;64396;-77
2021/07/28 10:32:50;;;;;;;7.80;5.67;;;;;;;32.27;46.88;98460.30;124906;1093;64310;-77
2021/07/28 10:35:29;;;;;;;9.87;5.83;;;;;;;32.46;47.05;98454.45;124839;1093;64309;-77
2021/07/28 10:37:59;;;;;;;11.37;6.20;;;;;;;32.57;47.28;98451.59;124821;1093;64407;-78
2021/07/28 10:40:26;;;;;;;9.10;5.50;;;;;;;32.69;45.51;98459.70;124804;1093;64740;-77
2021/07/28 10:42:53;;;;;;;10.55;5.95;;;;;;;32.58;45.98;98457.94;124800;1093;64290;-76
2021/07/28 10:45:22;;;;;;;8.55;5.90;;;;;;;32.60;46.41;98450.24;124826;1093;64287;-76
2021/07/28 10:47:51;;;;;;;18.10;6.65;;;;;;;32.66;46.87;98453.88;124778;1093;64264;-77
2021/07/28 10:50:30;;;;;;;;;;;;;;;32.80;46.67;98460.64;124894;1093;64296;-77
2021/07/28 10:53:04;;;;;;;11.28;6.58;;;;;;;32.84;46.01;98455.45;124796;1093;64276;-77
2021/07/28 10:55:33;;;;;;;8.27;6.87;;;;;;;32.89;46.41;98459.09;124769;1093;64236;-76
2021/07/28 10:58:09;;;;;;;8.80;5.65;;;;;;;32.91;46.70;98458.81;124819;1093;64287;-77
2021/07/28 11:00:39;;;;;;;9.83;6.37;;;;;;;32.77;46.90;98458.41;124875;1093;64278;-77
2021/07/28 11:03:10;;;;;;;9.70;5.90;;;;;;;32.60;45.85;98447.48;124838;1092;64188;-77
2021/07/28 11:05:39;;;;;;;8.37;5.40;;;;;;;32.49;45.89;98456.71;124778;1093;64340;-77
2021/07/28 11:08:18;;;;;;;11.63;5.83;;;;;;;32.43;46.00;98447.52;124806;1093;64377;-82
2021/07/28 11:10:45;;;;;;;9.77;6.00;;;;;;;32.42;45.49;98453.31;124841;1093;64241;-82
2021/07/28 11:13:23;;;;;;;9.37;6.63;;;;;;;32.43;45.80;98450.28;124876;1093;64268;-82
2021/07/28 11:15:59;;;;;;;9.47;5.37;;;;;;;32.62;45.73;98447.20;124912;1092;64248;-82
2021/07/28 11:18:46;;;;;;;10.03;6.07;;;;;;;32.68;44.47;98444.25;124746;1093;64837;-82
2021/07/28 11:21:22;;;;;;;11.03;5.67;;;;;;;32.71;44.97;98440.14;124735;1093;64405;-82
2021/07/28 11:23:54;;;;;;;8.17;6.20;;;;;;;32.71;44.63;98449.25;124742;1093;64398;-82
2021/07/28 11:34:49;;;;;;;16.70;7.00;;;;;;;32.60;43.71;98436.45;124914;1093;64340;-82
2021/07/28 11:37:20;;;;;;;11.80;6.73;;;;;;;32.61;44.13;98431.75;124908;1093;64284;-83
2021/07/28 11:39:50;;;;;;;11.77;7.50;;;;;;;32.63;43.67;98429.58;124850;1093;64440;-82